Time;durP1;ratioP1;P1;durP2;ratioP2;P2;SDS_P1;SDS_P2;PMS_P1;PMS_P2;Temp;Humidity;BMP_temperature;BMP_pressure;BME280_temperature;BME280_humidity;BME280_pressure;Samples;Min_cycle;Max_cycle;Signal;HPM_P1;HPM_P2
2022/10/22 00:00:29;;;;;;;9.43;6.37;;;;;;;;;;5115183;28;20352;-86
2022/10/22 00:02:57;;;;;;;8.83;6.10;;;;;;;;;;5096880;28;20214;-86
2022/10/22 00:05:27;;;;;;;5.53;4.00;;;;;;;;;;5096268;28;20198;-86
2022/10/22 00:07:56;;;;;;;6.83;4.90;;;;;;;;;;5083736;28;20206;-86
2022/10/22 00:10:24;;;;;;;7.23;4.80;;;;;;;;;;5077592;28;20205;-86
2022/10/22 00:12:53;;;;;;;8.27;5.80;;;;;;;;;;5079155;28;20217;-86
2022/10/22 00:15:22;;;;;;;7.10;4.93;;;;;;;;;;5096447;28;20295;-86
2022/10/22 00:17:50;;;;;;;8.23;4.50;;;;;;;;;;5095264;28;20198;-86
2022/10/22 00:20:18;;;;;;;4.47;4.07;;;;;;;;;;5085925;28;20220;-86
2022/10/22 00:22:48;;;;;;;8.63;4.93;;;;;;;;;;5114756;28;20339;-86
2022/10/22 00:25:17;;;;;;;8.70;6.27;;;;;;;;;;5096260;28;20210;-86
2022/10/22 00:27:45;;;;;;;5.87;4.20;;;;;;;;;;5096487;28;20213;-86
2022/10/22 00:30:14;;;;;;;8.80;6.00;;;;;;;;;;5086026;28;20197;-86
2022/10/22 00:32:42;;;;;;;5.10;4.60;;;;;;;;;;5097861;28;20194;-86
2022/10/22 00:35:11;;;;;;;9.03;6.43;;;;;;;;;;5085707;28;20231;-86
2022/10/22 00:37:39;;;;;;;14.13;5.50;;;;;;;;;;5113216;28;20201;-86
2022/10/22 00:40:10;;;;;;;6.93;6.10;;;;;;;;;;5102396;28;20225;-86
2022/10/22 00:42:38;;;;;;;12.60;5.13;;;;;;;;;;5094474;28;20213;-86
2022/10/22 00:45:15;;;;;;;6.73;6.10;;;;;;;;;;5107487;28;20219;-86
2022/10/22 00:47:45;;;;;;;6.13;5.33;;;;;;;;;;5096479;28;20227;-86
2022/10/22 00:50:16;;;;;;;9.13;5.17;;;;;;;;;;5095674;28;20287;-86
2022/10/22 00:52:45;;;;;;;6.40;5.77;;;;;;;;;;5087618;28;20198;-86
2022/10/22 00:55:15;;;;;;;8.17;4.27;;;;;;;;;;5078282;28;20235;-86
2022/10/22 00:57:44;;;;;;;7.10;5.73;;;;;;;;;;5086608;28;20269;-86
2022/10/22 01:00:13;;;;;;;7.93;5.50;;;;;;;;;;5076012;28;20228;-86
2022/10/22 01:02:41;;;;;;;6.87;5.67;;;;;;;;;;5076279;28;20262;-86
2022/10/22 01:05:10;;;;;;;6.87;5.20;;;;;;;;;;5092249;28;20203;-86
2022/10/22 01:07:41;;;;;;;7.87;5.57;;;;;;;;;;5095300;28;20210;-86
2022/10/22 01:10:12;;;;;;;6.67;5.23;;;;;;;;;;5109356;28;20204;-86
2022/10/22 01:12:46;;;;;;;7.17;4.57;;;;;;;;;;5114219;27;20271;-86
2022/10/22 01:15:18;;;;;;;8.60;5.77;;;;;;;;;;5114114;28;20208;-86
2022/10/22 01:17:50;;;;;;;10.20;6.10;;;;;;;;;;5090810;28;20247;-85
2022/10/22 01:20:26;;;;;;;7.17;4.53;;;;;;;;;;5080239;28;20217;-86
2022/10/22 01:22:59;;;;;;;7.00;5.53;;;;;;;;;;5083854;28;20208;-86
2022/10/22 01:25:32;;;;;;;7.97;5.13;;;;;;;;;;5095600;28;20205;-86
2022/10/22 01:28:08;;;;;;;7.83;5.20;;;;;;;;;;5095172;28;20204;-86
2022/10/22 01:30:39;;;;;;;7.70;4.80;;;;;;;;;;5094445;28;20197;-86
2022/10/22 01:33:09;;;;;;;9.77;5.33;;;;;;;;;;5095445;28;20201;-86
2022/10/22 01:35:39;;;;;;;11.37;6.07;;;;;;;;;;5089070;28;20227;-86
2022/10/22 01:38:09;;;;;;;12.17;6.40;;;;;;;;;;5089030;28;20212;-86
2022/10/22 01:40:38;;;;;;;8.97;5.43;;;;;;;;;;5083556;28;20205;-86
2022/10/22 01:43:07;;;;;;;9.07;5.30;;;;;;;;;;5080725;28;20217;-86
2022/10/22 01:45:40;;;;;;;8.47;5.87;;;;;;;;;;5077435;28;20205;-86
2022/10/22 01:48:15;;;;;;;16.07;6.77;;;;;;;;;;5113354;28;20197;-86
2022/10/22 01:50:57;;;;;;;10.03;5.50;;;;;;;;;;5091635;28;20202;-86
2022/10/22 01:53:30;;;;;;;6.03;3.97;;;;;;;;;;5093110;28;20233;-86
2022/10/22 01:56:05;;;;;;;6.63;4.60;;;;;;;;;;5082779;28;20192;-86
2022/10/22 01:58:39;;;;;;;8.47;4.57;;;;;;;;;;5093414;28;20207;-86
2022/10/22 02:01:13;;;;;;;6.60;4.40;;;;;;;;;;5084680;28;20185;-86
2022/10/22 02:03:46;;;;;;;11.27;4.47;;;;;;;;;;5094599;28;20240;-86
2022/10/22 02:06:16;;;;;;;7.97;4.47;;;;;;;;;;5084030;28;20197;-86
2022/10/22 02:08:45;;;;;;;6.67;3.87;;;;;;;;;;5098450;28;20192;-86
2022/10/22 02:11:14;;;;;;;7.47;3.23;;;;;;;;;;5083146;28;20189;-86
2022/10/22 02:13:44;;;;;;;9.33;5.27;;;;;;;;;;5075026;28;20219;-86
2022/10/22 02:16:16;;;;;;;7.13;4.33;;;;;;;;;;5088780;28;20257;-86
2022/10/22 02:18:45;;;;;;;6.23;3.70;;;;;;;;;;5096421;28;20237;-86
2022/10/22 02:21:14;;;;;;;8.10;3.90;;;;;;;;;;5099205;28;20228;-86
2022/10/22 02:23:42;;;;;;;6.50;4.43;;;;;;;;;;5099525;28;20237;-86
2022/10/22 02:26:15;;;;;;;8.07;4.47;;;;;;;;;;5097619;28;20291;-86
2022/10/22 02:28:46;;;;;;;12.60;4.30;;;;;;;;;;5088388;28;20201;-86
2022/10/22 02:31:20;;;;;;;7.43;4.53;;;;;;;;;;5085269;28;20215;-86
2022/10/22 02:33:49;;;;;;;6.73;4.10;;;;;;;;;;5098959;28;20197;-86
2022/10/22 02:36:18;;;;;;;7.47;4.07;;;;;;;;;;5098784;28;20239;-86
2022/10/22 02:38:48;;;;;;;7.70;4.30;;;;;;;;;;5109258;28;20194;-86
2022/10/22 02:41:16;;;;;;;8.23;4.03;;;;;;;;;;5079248;28;20230;-86
2022/10/22 02:43:45;;;;;;;10.07;4.17;;;;;;;;;;5091772;28;20226;-86
2022/10/22 02:46:16;;;;;;;8.00;5.10;;;;;;;;;;5098694;28;20246;-86
2022/10/22 02:48:46;;;;;;;4.90;4.40;;;;;;;;;;5097631;28;20244;-86
2022/10/22 02:51:14;;;;;;;7.07;3.87;;;;;;;;;;5086831;28;20196;-86
2022/10/22 02:53:42;;;;;;;15.43;5.17;;;;;;;;;;5093664;28;20286;-86
2022/10/22 02:56:11;;;;;;;10.13;4.07;;;;;;;;;;5085022;28;20255;-86
2022/10/22 02:58:39;;;;;;;12.27;4.10;;;;;;;;;;5092927;28;20202;-86
2022/10/22 03:01:08;;;;;;;6.63;3.83;;;;;;;;;;5078243;28;20235;-86
2022/10/22 03:03:41;;;;;;;9.43;4.33;;;;;;;;;;5089064;28;20252;-86
2022/10/22 03:06:10;;;;;;;11.03;4.27;;;;;;;;;;5087289;28;20240;-86
2022/10/22 03:08:39;;;;;;;11.90;5.73;;;;;;;;;;5088510;28;20193;-86
2022/10/22 03:11:07;;;;;;;9.77;4.60;;;;;;;;;;5083587;28;20197;-86
2022/10/22 03:13:36;;;;;;;7.27;2.90;;;;;;;;;;5079752;28;20205;-86
2022/10/22 03:16:04;;;;;;;5.13;4.00;;;;;;;;;;5074691;28;20293;-86
2022/10/22 03:18:36;;;;;;;7.23;4.47;;;;;;;;;;5088222;28;20213;-85
2022/10/22 03:21:08;;;;;;;12.43;5.13;;;;;;;;;;5087426;28;20218;-86
2022/10/22 03:23:38;;;;;;;8.00;4.97;;;;;;;;;;5095746;28;20210;-86
2022/10/22 03:26:07;;;;;;;13.23;5.40;;;;;;;;;;5081175;28;20209;-86
2022/10/22 03:28:36;;;;;;;7.87;3.73;;;;;;;;;;5095647;28;20200;-86
2022/10/22 03:31:04;;;;;;;4.57;3.37;;;;;;;;;;5080619;28;20205;-86
2022/10/22 03:33:33;;;;;;;9.67;4.63;;;;;;;;;;5094547;28;20247;-86
2022/10/22 03:36:01;;;;;;;7.90;5.83;;;;;;;;;;5094243;28;20198;-86
2022/10/22 03:38:30;;;;;;;9.10;5.37;;;;;;;;;;5095805;28;20197;-86
2022/10/22 03:40:59;;;;;;;15.37;5.23;;;;;;;;;;5091953;28;20225;-86
2022/10/22 03:43:28;;;;;;;9.27;4.77;;;;;;;;;;5084522;28;20217;-86
2022/10/22 03:45:56;;;;;;;10.33;5.90;;;;;;;;;;5093966;28;20201;-86
2022/10/22 03:48:25;;;;;;;13.40;7.33;;;;;;;;;;5094423;28;20197;-86
2022/10/22 03:50:53;;;;;;;6.67;4.23;;;;;;;;;;5090233;28;20221;-86
2022/10/22 03:53:21;;;;;;;9.93;4.53;;;;;;;;;;5088212;28;20240;-86
2022/10/22 03:55:50;;;;;;;7.77;4.33;;;;;;;;;;5083659;28;20197;-86
2022/10/22 03:58:20;;;;;;;12.37;4.67;;;;;;;;;;5097615;28;20224;-86
2022/10/22 04:00:48;;;;;;;8.90;3.93;;;;;;;;;;5090520;28;20201;-86
2022/10/22 04:03:17;;;;;;;9.90;3.93;;;;;;;;;;5077760;28;20211;-86
2022/10/22 04:05:45;;;;;;;8.03;4.20;;;;;;;;;;5084546;28;20199;-86
2022/10/22 04:08:13;;;;;;;7.53;4.37;;;;;;;;;;5083516;28;20219;-86
2022/10/22 04:10:42;;;;;;;15.37;5.30;;;;;;;;;;5115002;28;20200;-86
2022/10/22 04:13:10;;;;;;;11.60;4.90;;;;;;;;;;5114272;28;20200;-86
2022/10/22 04:15:40;;;;;;;8.13;3.73;;;;;;;;;;5085470;28;20227;-87
2022/10/22 04:18:08;;;;;;;10.67;4.67;;;;;;;;;;5084391;28;20207;-86
2022/10/22 04:20:37;;;;;;;10.90;4.80;;;;;;;;;;5096100;28;20577;-86
2022/10/22 04:23:05;;;;;;;13.50;4.20;;;;;;;;;;5083661;28;20254;-86
2022/10/22 04:25:33;;;;;;;9.47;4.73;;;;;;;;;;5087048;28;20213;-86
2022/10/22 04:28:02;;;;;;;13.80;4.83;;;;;;;;;;5076759;28;20216;-86
2022/10/22 04:30:30;;;;;;;9.27;4.90;;;;;;;;;;5087482;28;20222;-87
2022/10/22 04:33:00;;;;;;;11.60;5.27;;;;;;;;;;5092760;28;20190;-86
2022/10/22 04:35:28;;;;;;;4.20;2.80;;;;;;;;;;5076574;28;20204;-86
2022/10/22 04:37:57;;;;;;;8.83;4.93;;;;;;;;;;5089690;28;20200;-87
2022/10/22 04:40:25;;;;;;;7.93;5.13;;;;;;;;;;5088417;28;20214;-86
2022/10/22 04:42:53;;;;;;;8.07;4.60;;;;;;;;;;5100567;28;20227;-87
2022/10/22 04:45:22;;;;;;;8.37;4.90;;;;;;;;;;5113833;28;20248;-86
2022/10/22 04:47:50;;;;;;;9.23;4.83;;;;;;;;;;5096215;28;20197;-86
2022/10/22 04:50:20;;;;;;;9.53;5.03;;;;;;;;;;5083391;28;20205;-87
2022/10/22 04:52:49;;;;;;;8.00;4.87;;;;;;;;;;5083897;28;20200;-86
2022/10/22 04:55:17;;;;;;;8.20;4.77;;;;;;;;;;5095958;28;20231;-86
2022/10/22 04:57:46;;;;;;;9.70;6.83;;;;;;;;;;5095489;28;20196;-86
2022/10/22 05:00:15;;;;;;;11.20;4.33;;;;;;;;;;5093990;28;20257;-86
2022/10/22 05:02:44;;;;;;;7.20;5.00;;;;;;;;;;5102761;28;20200;-87
2022/10/22 05:05:12;;;;;;;10.60;5.43;;;;;;;;;;5093549;28;20204;-86
2022/10/22 05:07:42;;;;;;;11.97;5.07;;;;;;;;;;5076833;28;20223;-86
2022/10/22 05:10:11;;;;;;;9.73;4.43;;;;;;;;;;5097042;28;20230;-86
2022/10/22 05:12:39;;;;;;;7.50;4.87;;;;;;;;;;5084872;28;20225;-86
2022/10/22 05:15:08;;;;;;;9.20;6.17;;;;;;;;;;5079790;28;20207;-85
2022/10/22 05:17:37;;;;;;;3.90;3.23;;;;;;;;;;5095365;28;20208;-86
2022/10/22 05:20:06;;;;;;;8.20;4.33;;;;;;;;;;5094836;28;20224;-86
2022/10/22 05:22:35;;;;;;;9.40;4.13;;;;;;;;;;5095940;28;20290;-86
2022/10/22 05:25:05;;;;;;;15.43;5.40;;;;;;;;;;5095451;28;20261;-86
2022/10/22 05:27:33;;;;;;;5.67;5.03;;;;;;;;;;5095872;28;20201;-86
2022/10/22 05:30:01;;;;;;;7.87;4.30;;;;;;;;;;5090012;28;20291;-86
2022/10/22 05:32:30;;;;;;;9.23;5.60;;;;;;;;;;5076219;28;20202;-86
2022/10/22 05:34:58;;;;;;;7.63;4.77;;;;;;;;;;5075643;28;20193;-86
2022/10/22 05:37:27;;;;;;;6.63;5.27;;;;;;;;;;5076197;28;20200;-86
2022/10/22 05:39:55;;;;;;;13.93;5.47;;;;;;;;;;5088043;28;20197;-86
2022/10/22 05:42:45;;;;;;;7.30;3.90;;;;;;;;;;5076507;28;20219;-86
2022/10/22 05:45:13;;;;;;;11.23;5.50;;;;;;;;;;5086617;28;20253;-86
2022/10/22 05:47:42;;;;;;;9.90;5.27;;;;;;;;;;5081716;28;20308;-86
2022/10/22 05:50:10;;;;;;;7.17;4.43;;;;;;;;;;5095584;28;20208;-86
2022/10/22 05:52:38;;;;;;;8.03;3.97;;;;;;;;;;5096562;28;20263;-86
2022/10/22 05:55:08;;;;;;;7.83;4.70;;;;;;;;;;5107091;28;20322;-86
2022/10/22 05:57:36;;;;;;;10.80;3.93;;;;;;;;;;5083246;28;20273;-86
2022/10/22 06:00:07;;;;;;;9.07;4.67;;;;;;;;;;5096092;28;20204;-86
2022/10/22 06:02:40;;;;;;;8.33;4.50;;;;;;;;;;5090516;28;20204;-86
2022/10/22 06:05:09;;;;;;;8.83;4.97;;;;;;;;;;5100850;28;20216;-86
2022/10/22 06:07:37;;;;;;;8.83;4.40;;;;;;;;;;5093959;28;20220;-86
2022/10/22 06:10:06;;;;;;;16.57;5.67;;;;;;;;;;5085175;28;20205;-86
2022/10/22 06:12:35;;;;;;;8.03;3.73;;;;;;;;;;5102422;28;20204;-86
2022/10/22 06:15:03;;;;;;;10.93;4.50;;;;;;;;;;5099609;28;20291;-86
2022/10/22 06:17:33;;;;;;;8.83;4.07;;;;;;;;;;5109974;28;20315;-86
2022/10/22 06:20:01;;;;;;;8.63;3.37;;;;;;;;;;5106628;28;20231;-86
2022/10/22 06:22:30;;;;;;;9.30;4.20;;;;;;;;;;5108681;28;20208;-86
2022/10/22 06:24:58;;;;;;;7.33;3.67;;;;;;;;;;5087145;28;20208;-86
2022/10/22 06:27:27;;;;;;;13.73;4.73;;;;;;;;;;5102080;28;20223;-86
2022/10/22 06:29:55;;;;;;;8.90;4.27;;;;;;;;;;5102021;28;20195;-86
2022/10/22 06:32:23;;;;;;;16.37;3.33;;;;;;;;;;5101582;28;20253;-86
2022/10/22 06:34:53;;;;;;;7.83;4.83;;;;;;;;;;5095348;28;20262;-86
2022/10/22 06:37:21;;;;;;;11.07;3.73;;;;;;;;;;5095402;28;20204;-86
2022/10/22 06:39:50;;;;;;;9.40;3.43;;;;;;;;;;5082110;28;20196;-86
2022/10/22 06:42:18;;;;;;;6.90;3.37;;;;;;;;;;5096555;28;20205;-86
2022/10/22 06:44:47;;;;;;;7.13;3.57;;;;;;;;;;5093264;28;20222;-86
2022/10/22 06:47:15;;;;;;;7.77;3.87;;;;;;;;;;5095373;28;20251;-86
2022/10/22 06:49:43;;;;;;;9.47;3.40;;;;;;;;;;5091135;28;20253;-86
2022/10/22 06:52:13;;;;;;;12.57;4.57;;;;;;;;;;5088417;28;20244;-86
2022/10/22 06:54:41;;;;;;;6.50;3.73;;;;;;;;;;5119819;28;20233;-86
2022/10/22 06:57:10;;;;;;;7.30;3.90;;;;;;;;;;5118883;28;20204;-86
2022/10/22 06:59:38;;;;;;;8.30;4.27;;;;;;;;;;5101777;28;20192;-86
2022/10/22 07:02:07;;;;;;;8.73;4.00;;;;;;;;;;5101215;28;20205;-86
2022/10/22 07:04:36;;;;;;;8.17;4.30;;;;;;;;;;5099263;28;20212;-86
2022/10/22 07:07:04;;;;;;;6.00;3.50;;;;;;;;;;5097816;28;20253;-86
2022/10/22 07:09:34;;;;;;;9.37;3.70;;;;;;;;;;5104326;28;20200;-86
2022/10/22 07:12:02;;;;;;;11.83;3.70;;;;;;;;;;5102413;28;20193;-86
2022/10/22 07:14:31;;;;;;;7.20;3.17;;;;;;;;;;5098505;28;20274;-86
2022/10/22 07:16:59;;;;;;;12.50;5.10;;;;;;;;;;5097815;28;20197;-86
2022/10/22 07:19:28;;;;;;;12.33;3.97;;;;;;;;;;5098222;28;20204;-86
2022/10/22 07:21:56;;;;;;;11.10;4.93;;;;;;;;;;5097498;28;20217;-86
2022/10/22 07:24:24;;;;;;;7.93;2.43;;;;;;;;;;5098055;28;20289;-86
2022/10/22 07:26:54;;;;;;;4.73;3.20;;;;;;;;;;5119114;27;20213;-86
2022/10/22 07:29:23;;;;;;;7.77;3.10;;;;;;;;;;5084213;28;20202;-86
2022/10/22 07:31:51;;;;;;;6.37;2.93;;;;;;;;;;5086091;28;20201;-86
2022/10/22 07:34:19;;;;;;;5.50;2.93;;;;;;;;;;5095967;28;20201;-85
2022/10/22 07:36:48;;;;;;;7.93;3.87;;;;;;;;;;5086663;28;20223;-85
2022/10/22 07:39:16;;;;;;;9.80;2.97;;;;;;;;;;5097780;28;20292;-85
2022/10/22 07:41:45;;;;;;;8.90;3.90;;;;;;;;;;5087997;28;20248;-85
2022/10/22 07:44:14;;;;;;;7.53;3.00;;;;;;;;;;5094520;28;20245;-85
2022/10/22 07:46:43;;;;;;;7.57;3.57;;;;;;;;;;5097655;28;20268;-85
2022/10/22 07:49:16;;;;;;;8.87;4.20;;;;;;;;;;5097053;28;20209;-85
2022/10/22 07:51:44;;;;;;;5.30;2.73;;;;;;;;;;5097380;28;20229;-85
2022/10/22 07:54:12;;;;;;;9.77;3.40;;;;;;;;;;5084213;28;20226;-85
2022/10/22 07:56:41;;;;;;;6.27;3.13;;;;;;;;;;5103585;28;20207;-85
2022/10/22 07:59:09;;;;;;;8.60;4.10;;;;;;;;;;5084020;28;20194;-85
2022/10/22 08:01:39;;;;;;;6.23;3.03;;;;;;;;;;5096712;28;20266;-85
2022/10/22 08:04:08;;;;;;;8.80;2.90;;;;;;;;;;5097039;28;20202;-85
2022/10/22 08:06:37;;;;;;;13.07;3.50;;;;;;;;;;5096214;28;20213;-85
2022/10/22 08:09:05;;;;;;;9.13;2.97;;;;;;;;;;5103340;28;20197;-85
2022/10/22 08:11:34;;;;;;;7.83;3.53;;;;;;;;;;5095890;28;20205;-85
2022/10/22 08:14:02;;;;;;;7.67;3.00;;;;;;;;;;5085781;28;20231;-85
2022/10/22 08:16:31;;;;;;;10.37;3.47;;;;;;;;;;5094372;28;20205;-85
2022/10/22 08:19:01;;;;;;;8.67;3.23;;;;;;;;;;5103581;28;20207;-85
2022/10/22 08:21:29;;;;;;;7.00;3.20;;;;;;;;;;5096720;28;20231;-85
2022/10/22 08:23:57;;;;;;;6.23;2.57;;;;;;;;;;5096770;28;20214;-85
2022/10/22 08:26:26;;;;;;;7.63;1.67;;;;;;;;;;5093569;28;20203;-85
2022/10/22 08:28:54;;;;;;;5.77;2.07;;;;;;;;;;5076798;28;20231;-85
2022/10/22 08:31:22;;;;;;;10.60;3.83;;;;;;;;;;5108477;28;20256;-85
2022/10/22 08:33:51;;;;;;;16.87;3.57;;;;;;;;;;5105823;28;20278;-85
2022/10/22 08:36:21;;;;;;;11.23;2.70;;;;;;;;;;5110015;28;20221;-85
2022/10/22 08:38:49;;;;;;;16.73;4.03;;;;;;;;;;5088984;28;20259;-85
2022/10/22 08:41:19;;;;;;;9.83;2.00;;;;;;;;;;5096728;28;20202;-85
2022/10/22 08:44:10;;;;;;;4.93;1.40;;;;;;;;;;5114505;28;20217;-85
2022/10/22 08:46:49;;;;;;;10.30;3.03;;;;;;;;;;5086393;28;20224;-85
2022/10/22 08:49:21;;;;;;;11.40;3.10;;;;;;;;;;5090752;28;20205;-85
2022/10/22 08:51:52;;;;;;;14.27;4.50;;;;;;;;;;5107494;28;20200;-85
2022/10/22 08:54:25;;;;;;;6.30;2.77;;;;;;;;;;5114159;28;20248;-85
2022/10/22 08:57:02;;;;;;;11.67;3.03;;;;;;;;;;5095632;28;20244;-85
2022/10/22 08:59:35;;;;;;;14.57;4.07;;;;;;;;;;5114442;28;20194;-85
2022/10/22 09:02:05;;;;;;;4.93;3.57;;;;;;;;;;5095659;28;20194;-85
2022/10/22 09:04:37;;;;;;;6.77;2.83;;;;;;;;;;5096419;28;20209;-85
2022/10/22 09:07:07;;;;;;;7.03;2.83;;;;;;;;;;5082277;28;20233;-85
2022/10/22 09:09:40;;;;;;;11.77;2.43;;;;;;;;;;5114629;28;20214;-85
2022/10/22 09:12:11;;;;;;;2.63;0.87;;;;;;;;;;5113621;28;20194;-86
2022/10/22 09:14:46;;;;;;;11.63;2.60;;;;;;;;;;5082413;28;20282;-86
2022/10/22 09:17:16;;;;;;;9.63;3.50;;;;;;;;;;5105603;28;20196;-86
2022/10/22 09:19:51;;;;;;;1.67;1.00;;;;;;;;;;5090883;28;20209;-86
2022/10/22 09:22:28;;;;;;;2.07;1.87;;;;;;;;;;5096029;28;20231;-87
2022/10/22 09:24:59;;;;;;;20.87;4.73;;;;;;;;;;5095501;28;20222;-87
2022/10/22 09:27:28;;;;;;;4.37;2.03;;;;;;;;;;5095316;28;20216;-86
2022/10/22 09:29:57;;;;;;;15.60;3.80;;;;;;;;;;5095661;28;20203;-86
2022/10/22 09:32:26;;;;;;;8.97;3.10;;;;;;;;;;5113610;28;20203;-86
2022/10/22 09:34:56;;;;;;;6.77;3.03;;;;;;;;;;5099795;28;20194;-86
2022/10/22 09:37:28;;;;;;;2.20;1.33;;;;;;;;;;5082654;28;20201;-86
2022/10/22 09:39:57;;;;;;;12.00;3.90;;;;;;;;;;5088018;28;20208;-86
2022/10/22 09:42:26;;;;;;;9.57;3.40;;;;;;;;;;5090796;28;20200;-87
2022/10/22 09:44:55;;;;;;;5.13;1.23;;;;;;;;;;5095323;28;20196;-87
2022/10/22 09:47:29;;;;;;;9.27;2.30;;;;;;;;;;5079986;28;20220;-86
2022/10/22 09:50:23;;;;;;;8.40;2.13;;;;;;;;;;5075704;28;20206;-88
2022/10/22 09:53:06;;;;;;;2.50;1.63;;;;;;;;;;5101371;28;20267;-89
2022/10/22 09:55:34;;;;;;;7.00;2.17;;;;;;;;;;5082028;28;20254;-87
2022/10/22 09:58:03;;;;;;;2.40;1.07;;;;;;;;;;5095340;28;20195;-87
2022/10/22 10:00:31;;;;;;;0.50;0.50;;;;;;;;;;5080814;28;20197;-86
2022/10/22 10:03:00;;;;;;;1.03;1.03;;;;;;;;;;5083419;28;20207;-86
2022/10/22 10:05:31;;;;;;;6.83;1.43;;;;;;;;;;5095212;28;20199;-86
2022/10/22 10:08:00;;;;;;;11.17;2.77;;;;;;;;;;5113653;28;20250;-86
2022/10/22 10:10:34;;;;;;;6.27;1.63;;;;;;;;;;5095095;28;20201;-86
2022/10/22 10:13:07;;;;;;;6.17;2.77;;;;;;;;;;5095771;28;20211;-86
2022/10/22 10:15:39;;;;;;;3.93;1.20;;;;;;;;;;5077903;28;20220;-85
2022/10/22 10:18:13;;;;;;;4.97;1.27;;;;;;;;;;5105515;28;20225;-86
2022/10/22 10:20:47;;;;;;;5.07;0.80;;;;;;;;;;5084965;28;20222;-86
2022/10/22 10:23:22;;;;;;;1.83;0.87;;;;;;;;;;5077794;28;20253;-86
2022/10/22 10:25:58;;;;;;;2.03;0.90;;;;;;;;;;5087692;28;20292;-86
2022/10/22 10:28:42;;;;;;;4.40;1.00;;;;;;;;;;5081638;28;20267;-86
2022/10/22 10:31:15;;;;;;;4.40;1.33;;;;;;;;;;5081782;28;20207;-86
2022/10/22 10:33:47;;;;;;;0.73;0.73;;;;;;;;;;5085290;28;20294;-87
2022/10/22 10:36:20;;;;;;;3.60;1.47;;;;;;;;;;5088904;28;20200;-87
2022/10/22 10:38:56;;;;;;;0.73;0.73;;;;;;;;;;5087177;28;20226;-87
2022/10/22 10:41:32;;;;;;;0.83;0.83;;;;;;;;;;5085585;28;20202;-87
2022/10/22 10:44:17;;;;;;;4.23;1.27;;;;;;;;;;5098483;28;20226;-87
2022/10/22 10:46:50;;;;;;;3.90;1.20;;;;;;;;;;5056415;28;20200;-87
2022/10/22 10:49:20;;;;;;;5.27;1.63;;;;;;;;;;5084202;28;20199;-87
2022/10/22 10:51:53;;;;;;;1.10;0.73;;;;;;;;;;5098422;28;20284;-87
2022/10/22 10:54:44;;;;;;;4.87;1.50;;;;;;;;;;5078456;28;20223;-87
2022/10/22 10:57:22;;;;;;;6.50;1.20;;;;;;;;;;5082743;28;20195;-87
2022/10/22 11:00:00;;;;;;;1.53;1.03;;;;;;;;;;5116364;28;20207;-87
2022/10/22 11:02:43;;;;;;;3.97;0.87;;;;;;;;;;5098354;28;20205;-87
2022/10/22 11:05:21;;;;;;;10.03;3.17;;;;;;;;;;5116421;28;20199;-88
2022/10/22 11:07:53;;;;;;;3.70;1.43;;;;;;;;;;5098536;28;20223;-87
2022/10/22 11:10:28;;;;;;;3.57;1.83;;;;;;;;;;5093105;28;20202;-87
2022/10/22 11:13:01;;;;;;;2.37;1.17;;;;;;;;;;5096290;28;20196;-87
2022/10/22 11:15:31;;;;;;;5.40;1.13;;;;;;;;;;5083222;28;20252;-87
2022/10/22 11:18:03;;;;;;;2.13;1.33;;;;;;;;;;5098401;28;20192;-87
2022/10/22 11:20:38;;;;;;;11.93;1.57;;;;;;;;;;5087105;28;20234;-87
2022/10/22 11:23:11;;;;;;;2.13;1.23;;;;;;;;;;5090730;28;20224;-86
2022/10/22 11:25:49;;;;;;;5.97;1.40;;;;;;;;;;5095187;28;20206;-86
2022/10/22 11:28:22;;;;;;;4.77;1.00;;;;;;;;;;5096965;28;20257;-86
2022/10/22 11:30:55;;;;;;;5.07;1.20;;;;;;;;;;5113210;28;20285;-86
2022/10/22 11:33:26;;;;;;;2.20;1.00;;;;;;;;;;5085693;28;20209;-86
2022/10/22 11:35:54;;;;;;;2.30;1.37;;;;;;;;;;5095732;28;20200;-86
2022/10/22 11:38:24;;;;;;;2.77;1.00;;;;;;;;;;5092052;28;20201;-86
2022/10/22 11:40:55;;;;;;;2.70;1.10;;;;;;;;;;5088888;28;20207;-86
2022/10/22 11:43:29;;;;;;;1.10;0.97;;;;;;;;;;5090548;28;20303;-85
2022/10/22 11:45:58;;;;;;;14.90;3.17;;;;;;;;;;5085787;28;20210;-85
2022/10/22 11:48:29;;;;;;;9.03;3.40;;;;;;;;;;5106483;28;20297;-85
2022/10/22 11:50:59;;;;;;;6.40;2.80;;;;;;;;;;5094099;28;20205;-85
2022/10/22 11:53:30;;;;;;;5.10;1.73;;;;;;;;;;5106362;28;20255;-85
2022/10/22 11:56:03;;;;;;;3.53;1.13;;;;;;;;;;5090684;28;20285;-85
2022/10/22 11:58:38;;;;;;;3.23;2.37;;;;;;;;;;5089041;28;20207;-85
2022/10/22 12:01:18;;;;;;;5.57;1.30;;;;;;;;;;5078881;28;20318;-86
2022/10/22 12:03:49;;;;;;;1.80;1.57;;;;;;;;;;5073985;28;20310;-85
2022/10/22 12:06:20;;;;;;;3.97;1.57;;;;;;;;;;5099467;28;20215;-86
2022/10/22 12:08:53;;;;;;;2.23;0.60;;;;;;;;;;5088003;28;20224;-86
2022/10/22 12:11:22;;;;;;;4.13;1.93;;;;;;;;;;5083167;28;20226;-86
2022/10/22 12:14:02;;;;;;;1.90;1.40;;;;;;;;;;5080344;28;20213;-86
2022/10/22 12:16:36;;;;;;;5.70;1.13;;;;;;;;;;5087066;28;20226;-86
2022/10/22 12:19:30;;;;;;;1.97;0.83;;;;;;;;;;5103874;28;20213;-86
2022/10/22 12:22:00;;;;;;;3.37;1.90;;;;;;;;;;5091923;28;20220;-85
2022/10/22 12:24:31;;;;;;;1.20;0.70;;;;;;;;;;5087211;28;20223;-86
2022/10/22 12:26:59;;;;;;;4.13;1.73;;;;;;;;;;5087755;28;20234;-86
2022/10/22 12:29:31;;;;;;;5.90;2.37;;;;;;;;;;5096146;28;20220;-85
2022/10/22 12:32:03;;;;;;;4.30;1.43;;;;;;;;;;5090929;28;20266;-85
2022/10/22 12:34:31;;;;;;;3.07;0.90;;;;;;;;;;5103418;28;20231;-85
2022/10/22 12:36:59;;;;;;;2.83;1.67;;;;;;;;;;5086364;28;20224;-85
2022/10/22 12:39:28;;;;;;;8.73;3.83;;;;;;;;;;5094334;28;20205;-86
2022/10/22 12:41:57;;;;;;;2.30;0.80;;;;;;;;;;5093707;28;20216;-86
2022/10/22 12:44:25;;;;;;;5.27;2.07;;;;;;;;;;5087412;28;20258;-86
2022/10/22 12:46:55;;;;;;;4.97;1.67;;;;;;;;;;5109673;28;20219;-86
2022/10/22 12:49:26;;;;;;;24.77;2.30;;;;;;;;;;5083617;28;20205;-85
2022/10/22 12:51:54;;;;;;;9.90;3.63;;;;;;;;;;5086346;28;20228;-85
2022/10/22 12:54:25;;;;;;;6.77;2.50;;;;;;;;;;5086888;28;20245;-85
2022/10/22 12:56:55;;;;;;;8.47;2.63;;;;;;;;;;5078412;28;20276;-85
2022/10/22 12:59:25;;;;;;;10.10;3.13;;;;;;;;;;5099112;28;20236;-85
2022/10/22 13:01:55;;;;;;;7.27;2.07;;;;;;;;;;5080656;28;20232;-85
2022/10/22 13:04:32;;;;;;;11.60;2.40;;;;;;;;;;5080615;28;20224;-86
2022/10/22 13:07:06;;;;;;;3.53;1.43;;;;;;;;;;5086167;28;20208;-85
2022/10/22 13:09:39;;;;;;;10.07;3.63;;;;;;;;;;5112385;28;20269;-86
2022/10/22 13:12:09;;;;;;;11.97;4.30;;;;;;;;;;5103377;27;20224;-86
2022/10/22 13:14:38;;;;;;;3.53;1.70;;;;;;;;;;5080169;28;20217;-85
2022/10/22 13:17:10;;;;;;;6.47;1.73;;;;;;;;;;5087178;28;20226;-85
2022/10/22 13:19:40;;;;;;;9.13;3.37;;;;;;;;;;5082960;28;20223;-85
2022/10/22 13:22:29;;;;;;;10.40;3.43;;;;;;;;;;5086381;28;20300;-85
2022/10/22 13:24:58;;;;;;;4.43;2.53;;;;;;;;;;5094629;28;20215;-85
2022/10/22 13:27:28;;;;;;;8.17;1.13;;;;;;;;;;5105033;28;20220;-86
2022/10/22 13:29:57;;;;;;;4.57;2.27;;;;;;;;;;5092787;28;20209;-85
2022/10/22 13:32:30;;;;;;;12.43;3.63;;;;;;;;;;5090668;28;20265;-85
2022/10/22 13:35:00;;;;;;;11.33;3.90;;;;;;;;;;5090852;28;20286;-85
2022/10/22 13:37:29;;;;;;;6.77;1.33;;;;;;;;;;5085948;28;20216;-86
2022/10/22 13:39:57;;;;;;;7.27;3.13;;;;;;;;;;5087283;28;20224;-86
2022/10/22 13:42:26;;;;;;;14.37;4.00;;;;;;;;;;5093746;28;20228;-86
2022/10/22 13:44:54;;;;;;;2.23;1.30;;;;;;;;;;5092339;28;20213;-86
2022/10/22 13:47:25;;;;;;;12.73;3.20;;;;;;;;;;5085208;28;20213;-85
2022/10/22 13:49:58;;;;;;;7.53;2.47;;;;;;;;;;5091358;28;20227;-85
2022/10/22 13:52:34;;;;;;;8.27;2.53;;;;;;;;;;5091261;28;20363;-86
2022/10/22 13:55:03;;;;;;;13.00;3.40;;;;;;;;;;5079721;28;20232;-85
2022/10/22 13:57:32;;;;;;;8.47;1.90;;;;;;;;;;5071216;28;20223;-86
2022/10/22 14:00:00;;;;;;;0.73;0.73;;;;;;;;;;5067358;28;20217;-85
2022/10/22 14:02:29;;;;;;;6.80;2.13;;;;;;;;;;5060149;28;20224;-85
2022/10/22 14:05:02;;;;;;;3.90;2.47;;;;;;;;;;5076289;28;20233;-86
2022/10/22 14:07:30;;;;;;;5.23;1.70;;;;;;;;;;5070071;28;20223;-86
2022/10/22 14:09:58;;;;;;;12.73;2.47;;;;;;;;;;5069711;28;20254;-86
2022/10/22 14:12:27;;;;;;;3.50;2.27;;;;;;;;;;5069492;28;20206;-85
2022/10/22 14:14:55;;;;;;;1.33;1.23;;;;;;;;;;5074173;28;20247;-86
2022/10/22 14:17:24;;;;;;;5.40;2.03;;;;;;;;;;5068518;28;20204;-86
2022/10/22 14:19:53;;;;;;;1.17;1.07;;;;;;;;;;5062158;28;20231;-86
2022/10/22 14:22:24;;;;;;;8.40;2.63;;;;;;;;;;5081649;28;20205;-86
2022/10/22 14:24:53;;;;;;;10.43;2.60;;;;;;;;;;5067414;28;20319;-86
2022/10/22 14:27:21;;;;;;;12.83;2.87;;;;;;;;;;5072417;28;20292;-86
2022/10/22 14:29:49;;;;;;;5.80;1.47;;;;;;;;;;5067677;28;20214;-86
2022/10/22 14:32:19;;;;;;;3.17;1.93;;;;;;;;;;5073889;28;20230;-86
2022/10/22 14:34:47;;;;;;;2.80;1.90;;;;;;;;;;5062240;28;20242;-85
2022/10/22 14:37:17;;;;;;;5.47;2.20;;;;;;;;;;5074892;28;20208;-85
2022/10/22 14:39:51;;;;;;;7.43;2.17;;;;;;;;;;5085024;28;20198;-86
2022/10/22 14:42:20;;;;;;;18.80;4.10;;;;;;;;;;5065284;28;20253;-86
2022/10/22 14:44:48;;;;;;;1.07;0.70;;;;;;;;;;5074600;28;20197;-86
2022/10/22 14:47:17;;;;;;;12.20;3.93;;;;;;;;;;5074343;28;20201;-86
2022/10/22 14:49:45;;;;;;;13.03;4.03;;;;;;;;;;5066148;28;20214;-86
2022/10/22 14:52:13;;;;;;;7.03;1.87;;;;;;;;;;5069545;28;20249;-85
2022/10/22 14:54:42;;;;;;;7.60;2.40;;;;;;;;;;5096334;28;20239;-86
2022/10/22 14:57:13;;;;;;;10.73;1.10;;;;;;;;;;5092999;28;20207;-86
2022/10/22 14:59:41;;;;;;;4.43;1.73;;;;;;;;;;5097677;28;20196;-86